sensor_id;sensor_type;location;lat;lon;timestamp;pressure;altitude;pressure_sealevel;temperature;humidity
10464;BME280;5279;42.048;24.638;2023-04-01T00:01:56;96610.97;;;10.93;61.92
10464;BME280;5279;42.048;24.638;2023-04-01T00:04:23;96621.97;;;10.66;62.84
10464;BME280;5279;42.048;24.638;2023-04-01T00:06:50;96616.78;;;10.81;63.30
10464;BME280;5279;42.048;24.638;2023-04-01T00:09:18;96623.63;;;10.59;62.99
10464;BME280;5279;42.048;24.638;2023-04-01T00:11:46;96627.75;;;10.62;62.88
10464;BME280;5279;42.048;24.638;2023-04-01T00:14:12;96628.56;;;10.70;63.04
10464;BME280;5279;42.048;24.638;2023-04-01T00:16:39;96625.91;;;10.78;63.04
10464;BME280;5279;42.048;24.638;2023-04-01T00:19:06;96622.59;;;10.84;63.97
10464;BME280;5279;42.048;24.638;2023-04-01T00:21:33;96621.75;;;10.84;63.86
10464;BME280;5279;42.048;24.638;2023-04-01T00:24:00;96618.47;;;10.66;61.25
10464;BME280;5279;42.048;24.638;2023-04-01T00:26:28;96622.13;;;10.65;63.10
10464;BME280;5279;42.048;24.638;2023-04-01T00:28:55;96619.00;;;10.37;64.12
10464;BME280;5279;42.048;24.638;2023-04-01T00:31:24;96619.38;;;10.26;63.96
10464;BME280;5279;42.048;24.638;2023-04-01T00:33:51;96622.69;;;10.36;64.33
10464;BME280;5279;42.048;24.638;2023-04-01T00:36:20;96619.19;;;10.43;64.75
10464;BME280;5279;42.048;24.638;2023-04-01T00:38:48;96618.00;;;10.46;64.13
10464;BME280;5279;42.048;24.638;2023-04-01T00:41:16;96616.03;;;10.48;65.39
10464;BME280;5279;42.048;24.638;2023-04-01T00:43:47;96611.75;;;10.39;64.24
10464;BME280;5279;42.048;24.638;2023-04-01T00:46:14;96614.88;;;10.34;63.46
10464;BME280;5279;42.048;24.638;2023-04-01T00:48:45;96618.03;;;10.30;63.62
10464;BME280;5279;42.048;24.638;2023-04-01T00:51:16;96615.03;;;10.41;63.28
10464;BME280;5279;42.048;24.638;2023-04-01T00:53:47;96621.34;;;10.48;64.19
10464;BME280;5279;42.048;24.638;2023-04-01T00:56:17;96614.06;;;10.26;65.59
10464;BME280;5279;42.048;24.638;2023-04-01T00:58:50;96607.94;;;10.41;63.84
10464;BME280;5279;42.048;24.638;2023-04-01T01:01:19;96613.53;;;10.47;64.32
10464;BME280;5279;42.048;24.638;2023-04-01T01:03:47;96612.38;;;9.84;68.37
10464;BME280;5279;42.048;24.638;2023-04-01T01:06:23;96601.47;;;10.12;66.14
10464;BME280;5279;42.048;24.638;2023-04-01T01:09:05;96598.19;;;10.26;65.99
10464;BME280;5279;42.048;24.638;2023-04-01T01:11:37;96601.50;;;10.36;65.93
10464;BME280;5279;42.048;24.638;2023-04-01T01:14:17;96601.78;;;10.49;66.55
10464;BME280;5279;42.048;24.638;2023-04-01T01:16:53;96597.13;;;10.59;67.17
10464;BME280;5279;42.048;24.638;2023-04-01T01:19:45;96601.41;;;10.68;66.34
10464;BME280;5279;42.048;24.638;2023-04-01T01:22:33;96596.81;;;10.54;66.45
10464;BME280;5279;42.048;24.638;2023-04-01T01:25:18;96595.97;;;10.62;64.66
10464;BME280;5279;42.048;24.638;2023-04-01T01:27:56;96595.81;;;10.63;64.24
10464;BME280;5279;42.048;24.638;2023-04-01T01:30:34;96584.34;;;10.71;63.94
10464;BME280;5279;42.048;24.638;2023-04-01T01:33:25;96583.53;;;10.70;64.42
10464;BME280;5279;42.048;24.638;2023-04-01T01:36:02;96584.53;;;10.61;64.70
10464;BME280;5279;42.048;24.638;2023-04-01T01:38:34;96590.50;;;10.55;65.62
10464;BME280;5279;42.048;24.638;2023-04-01T01:41:02;96589.16;;;10.67;65.58
10464;BME280;5279;42.048;24.638;2023-04-01T01:43:33;96586.84;;;10.72;65.96
10464;BME280;5279;42.048;24.638;2023-04-01T01:46:05;96595.75;;;10.87;66.71
10464;BME280;5279;42.048;24.638;2023-04-01T01:48:34;96591.38;;;10.94;66.31
10464;BME280;5279;42.048;24.638;2023-04-01T01:51:05;96588.09;;;10.92;66.02
10464;BME280;5279;42.048;24.638;2023-04-01T01:53:32;96595.59;;;10.81;67.10
10464;BME280;5279;42.048;24.638;2023-04-01T01:55:59;96586.16;;;10.78;67.25
10464;BME280;5279;42.048;24.638;2023-04-01T01:58:29;96587.78;;;10.79;67.78
10464;BME280;5279;42.048;24.638;2023-04-01T02:00:59;96578.03;;;10.80;68.06
10464;BME280;5279;42.048;24.638;2023-04-01T02:03:30;96560.97;;;10.82;69.17
10464;BME280;5279;42.048;24.638;2023-04-01T02:06:00;96565.16;;;10.69;71.57
10464;BME280;5279;42.048;24.638;2023-04-01T02:08:32;96561.06;;;10.50;75.52
10464;BME280;5279;42.048;24.638;2023-04-01T02:11:07;96551.50;;;10.41;73.27
10464;BME280;5279;42.048;24.638;2023-04-01T02:13:37;96558.81;;;10.23;73.19
10464;BME280;5279;42.048;24.638;2023-04-01T02:16:11;96551.03;;;10.21;72.75
10464;BME280;5279;42.048;24.638;2023-04-01T02:18:41;96554.84;;;10.27;73.68
10464;BME280;5279;42.048;24.638;2023-04-01T02:21:10;96557.13;;;10.38;74.58
10464;BME280;5279;42.048;24.638;2023-04-01T02:23:40;96548.00;;;10.49;74.12
10464;BME280;5279;42.048;24.638;2023-04-01T02:26:12;96543.22;;;10.44;76.34
10464;BME280;5279;42.048;24.638;2023-04-01T02:28:41;96531.28;;;10.48;76.51
10464;BME280;5279;42.048;24.638;2023-04-01T02:31:10;96541.22;;;10.54;75.36
10464;BME280;5279;42.048;24.638;2023-04-01T02:33:38;96545.03;;;10.43;75.94
10464;BME280;5279;42.048;24.638;2023-04-01T02:36:10;96548.53;;;10.28;78.46
10464;BME280;5279;42.048;24.638;2023-04-01T02:38:39;96549.06;;;10.23;78.78
10464;BME280;5279;42.048;24.638;2023-04-01T02:41:06;96539.44;;;10.06;77.65
10464;BME280;5279;42.048;24.638;2023-04-01T02:43:33;96545.91;;;10.12;77.42
10464;BME280;5279;42.048;24.638;2023-04-01T02:46:00;96545.41;;;10.16;77.50
10464;BME280;5279;42.048;24.638;2023-04-01T02:48:27;96554.16;;;10.25;77.43
10464;BME280;5279;42.048;24.638;2023-04-01T02:50:54;96554.50;;;10.30;76.25
10464;BME280;5279;42.048;24.638;2023-04-01T02:53:21;96548.69;;;10.34;76.27
10464;BME280;5279;42.048;24.638;2023-04-01T02:55:49;96542.91;;;10.39;76.50
10464;BME280;5279;42.048;24.638;2023-04-01T02:58:17;96552.47;;;10.40;76.82
10464;BME280;5279;42.048;24.638;2023-04-01T03:00:44;96551.84;;;10.38;77.13
10464;BME280;5279;42.048;24.638;2023-04-01T03:03:12;96543.59;;;10.33;78.14
10464;BME280;5279;42.048;24.638;2023-04-01T03:05:39;96539.28;;;10.16;79.09
10464;BME280;5279;42.048;24.638;2023-04-01T03:08:07;96540.94;;;9.93;80.51
10464;BME280;5279;42.048;24.638;2023-04-01T03:10:34;96530.69;;;9.89;80.46
10464;BME280;5279;42.048;24.638;2023-04-01T03:13:03;96536.00;;;9.89;80.37
10464;BME280;5279;42.048;24.638;2023-04-01T03:15:29;96544.91;;;9.88;81.47
10464;BME280;5279;42.048;24.638;2023-04-01T03:17:56;96543.75;;;9.91;81.72
10464;BME280;5279;42.048;24.638;2023-04-01T03:20:29;96534.66;;;9.85;81.33
10464;BME280;5279;42.048;24.638;2023-04-01T03:22:56;96527.56;;;9.78;82.47
10464;BME280;5279;42.048;24.638;2023-04-01T03:25:23;96528.38;;;9.70;82.12
10464;BME280;5279;42.048;24.638;2023-04-01T03:27:50;96517.97;;;9.69;82.77
10464;BME280;5279;42.048;24.638;2023-04-01T03:30:18;96515.81;;;9.64;83.93
10464;BME280;5279;42.048;24.638;2023-04-01T03:32:45;96524.75;;;9.63;84.12
10464;BME280;5279;42.048;24.638;2023-04-01T03:35:12;96511.34;;;9.65;82.92
10464;BME280;5279;42.048;24.638;2023-04-01T03:37:40;96506.41;;;9.62;83.30
10464;BME280;5279;42.048;24.638;2023-04-01T03:40:07;96509.56;;;9.57;85.66
10464;BME280;5279;42.048;24.638;2023-04-01T03:42:34;96506.56;;;9.36;86.88
10464;BME280;5279;42.048;24.638;2023-04-01T03:45:02;96509.78;;;8.90;95.27
10464;BME280;5279;42.048;24.638;2023-04-01T03:47:30;96504.50;;;8.90;95.90
10464;BME280;5279;42.048;24.638;2023-04-01T03:49:57;96507.31;;;9.04;95.53
10464;BME280;5279;42.048;24.638;2023-04-01T03:52:24;96508.84;;;9.15;95.44
10464;BME280;5279;42.048;24.638;2023-04-01T03:54:51;96511.81;;;9.20;96.13
10464;BME280;5279;42.048;24.638;2023-04-01T03:57:17;96503.56;;;9.31;93.95
10464;BME280;5279;42.048;24.638;2023-04-01T03:59:44;96503.75;;;9.38;91.14
10464;BME280;5279;42.048;24.638;2023-04-01T04:02:11;96505.56;;;9.21;92.28
10464;BME280;5279;42.048;24.638;2023-04-01T04:04:39;96489.03;;;9.27;91.77
10464;BME280;5279;42.048;24.638;2023-04-01T04:07:07;96492.34;;;9.37;90.04
10464;BME280;5279;42.048;24.638;2023-04-01T04:09:33;96492.00;;;9.40;91.79
10464;BME280;5279;42.048;24.638;2023-04-01T04:12:00;96487.72;;;9.23;96.41
10464;BME280;5279;42.048;24.638;2023-04-01T04:14:27;96491.75;;;8.85;100.00
10464;BME280;5279;42.048;24.638;2023-04-01T04:16:54;96497.25;;;9.08;100.00
10464;BME280;5279;42.048;24.638;2023-04-01T04:19:21;96490.34;;;9.23;99.19
10464;BME280;5279;42.048;24.638;2023-04-01T04:21:49;96490.38;;;9.39;99.28
10464;BME280;5279;42.048;24.638;2023-04-01T04:24:16;96490.34;;;9.55;99.68
10464;BME280;5279;42.048;24.638;2023-04-01T04:26:43;96499.63;;;9.67;98.09
10464;BME280;5279;42.048;24.638;2023-04-01T04:29:10;96497.97;;;9.74;93.15
10464;BME280;5279;42.048;24.638;2023-04-01T04:31:36;96503.59;;;9.87;89.54
10464;BME280;5279;42.048;24.638;2023-04-01T04:34:09;96489.00;;;9.92;90.29
10464;BME280;5279;42.048;24.638;2023-04-01T04:36:35;96496.13;;;9.99;87.41
10464;BME280;5279;42.048;24.638;2023-04-01T04:39:04;96499.78;;;9.90;91.03
10464;BME280;5279;42.048;24.638;2023-04-01T04:41:31;96505.22;;;10.05;88.99
10464;BME280;5279;42.048;24.638;2023-04-01T04:43:57;96503.53;;;10.28;86.75
10464;BME280;5279;42.048;24.638;2023-04-01T04:46:25;96504.16;;;10.38;84.13
10464;BME280;5279;42.048;24.638;2023-04-01T04:48:58;96505.84;;;10.39;85.36
10464;BME280;5279;42.048;24.638;2023-04-01T04:51:25;96497.22;;;10.37;86.17
10464;BME280;5279;42.048;24.638;2023-04-01T04:53:52;96493.09;;;10.43;84.21
10464;BME280;5279;42.048;24.638;2023-04-01T04:56:22;96501.16;;;10.49;83.53
10464;BME280;5279;42.048;24.638;2023-04-01T04:58:50;96493.69;;;10.61;81.91
10464;BME280;5279;42.048;24.638;2023-04-01T05:01:18;96502.16;;;10.40;82.83
10464;BME280;5279;42.048;24.638;2023-04-01T05:03:45;96511.69;;;10.65;83.78
10464;BME280;5279;42.048;24.638;2023-04-01T05:06:14;96512.28;;;10.83;84.78
10464;BME280;5279;42.048;24.638;2023-04-01T05:08:41;96508.09;;;10.89;84.03
10464;BME280;5279;42.048;24.638;2023-04-01T05:11:10;96510.13;;;11.10;85.53
10464;BME280;5279;42.048;24.638;2023-04-01T05:13:40;96503.09;;;11.25;84.99
10464;BME280;5279;42.048;24.638;2023-04-01T05:16:08;96498.13;;;11.22;84.06
10464;BME280;5279;42.048;24.638;2023-04-01T05:18:35;96499.09;;;11.29;82.92
10464;BME280;5279;42.048;24.638;2023-04-01T05:21:02;96490.97;;;11.30;82.52
10464;BME280;5279;42.048;24.638;2023-04-01T05:23:31;96490.16;;;11.30;79.14
10464;BME280;5279;42.048;24.638;2023-04-01T05:25:58;96491.78;;;11.31;77.64
10464;BME280;5279;42.048;24.638;2023-04-01T05:28:25;96480.03;;;11.33;77.17
10464;BME280;5279;42.048;24.638;2023-04-01T05:30:53;96485.78;;;11.37;79.62
10464;BME280;5279;42.048;24.638;2023-04-01T05:33:20;96474.47;;;11.43;80.03
10464;BME280;5279;42.048;24.638;2023-04-01T05:35:47;96469.16;;;11.43;80.64
10464;BME280;5279;42.048;24.638;2023-04-01T05:38:14;96459.22;;;11.45;80.91
10464;BME280;5279;42.048;24.638;2023-04-01T05:40:41;96457.81;;;11.49;81.04
10464;BME280;5279;42.048;24.638;2023-04-01T05:43:07;96461.16;;;11.51;83.03
10464;BME280;5279;42.048;24.638;2023-04-01T05:45:35;96448.53;;;11.53;83.14
10464;BME280;5279;42.048;24.638;2023-04-01T05:48:03;96435.91;;;11.55;78.53
10464;BME280;5279;42.048;24.638;2023-04-01T05:50:30;96431.97;;;11.51;76.44
10464;BME280;5279;42.048;24.638;2023-04-01T05:52:59;96434.63;;;11.51;75.20
10464;BME280;5279;42.048;24.638;2023-04-01T05:55:25;96435.34;;;11.45;76.07
10464;BME280;5279;42.048;24.638;2023-04-01T05:57:52;96428.00;;;11.47;76.36
10464;BME280;5279;42.048;24.638;2023-04-01T06:00:21;96429.94;;;11.53;77.37
10464;BME280;5279;42.048;24.638;2023-04-01T06:02:48;96432.38;;;11.63;77.17
10464;BME280;5279;42.048;24.638;2023-04-01T06:05:19;96434.50;;;11.67;78.83
10464;BME280;5279;42.048;24.638;2023-04-01T06:07:46;96419.16;;;11.77;77.80
10464;BME280;5279;42.048;24.638;2023-04-01T06:10:15;96409.09;;;11.87;76.52
10464;BME280;5279;42.048;24.638;2023-04-01T06:12:52;96403.53;;;11.97;74.94
10464;BME280;5279;42.048;24.638;2023-04-01T06:15:29;96398.59;;;12.09;75.07
10464;BME280;5279;42.048;24.638;2023-04-01T06:18:25;96385.13;;;12.25;73.90
10464;BME280;5279;42.048;24.638;2023-04-01T06:20:59;96383.94;;;12.27;75.24
10464;BME280;5279;42.048;24.638;2023-04-01T06:23:38;96386.03;;;12.32;73.34
10464;BME280;5279;42.048;24.638;2023-04-01T06:26:15;96380.34;;;12.35;72.70
10464;BME280;5279;42.048;24.638;2023-04-01T06:29:03;96371.72;;;12.47;73.67
10464;BME280;5279;42.048;24.638;2023-04-01T06:32:09;96374.44;;;12.54;74.27
10464;BME280;5279;42.048;24.638;2023-04-01T06:35:14;96387.34;;;12.57;76.23
10464;BME280;5279;42.048;24.638;2023-04-01T06:38:10;96393.06;;;12.54;73.91
10464;BME280;5279;42.048;24.638;2023-04-01T06:43:52;96393.16;;;12.46;74.51
10464;BME280;5279;42.048;24.638;2023-04-01T06:46:30;96404.78;;;12.45;72.95
10464;BME280;5279;42.048;24.638;2023-04-01T06:49:08;96404.53;;;12.40;75.32
10464;BME280;5279;42.048;24.638;2023-04-01T06:51:46;96400.47;;;12.44;75.03
10464;BME280;5279;42.048;24.638;2023-04-01T06:54:20;96396.81;;;12.45;75.89
10464;BME280;5279;42.048;24.638;2023-04-01T06:56:52;96398.09;;;12.49;77.53
10464;BME280;5279;42.048;24.638;2023-04-01T06:59:25;96411.34;;;12.64;77.94
10464;BME280;5279;42.048;24.638;2023-04-01T07:01:55;96397.41;;;12.76;78.65
10464;BME280;5279;42.048;24.638;2023-04-01T07:04:26;96383.88;;;12.92;78.38
10464;BME280;5279;42.048;24.638;2023-04-01T07:06:59;96381.34;;;13.05;78.88
10464;BME280;5279;42.048;24.638;2023-04-01T07:09:31;96384.19;;;13.19;79.94
10464;BME280;5279;42.048;24.638;2023-04-01T07:12:01;96381.38;;;13.27;78.82
10464;BME280;5279;42.048;24.638;2023-04-01T07:14:32;96378.41;;;13.36;78.53
10464;BME280;5279;42.048;24.638;2023-04-01T07:17:04;96364.19;;;13.50;76.60
10464;BME280;5279;42.048;24.638;2023-04-01T07:19:37;96376.31;;;13.59;75.78
10464;BME280;5279;42.048;24.638;2023-04-01T07:22:16;96374.72;;;13.65;75.72
10464;BME280;5279;42.048;24.638;2023-04-01T07:24:49;96364.19;;;13.78;74.90
10464;BME280;5279;42.048;24.638;2023-04-01T07:27:18;96357.84;;;13.79;76.19
10464;BME280;5279;42.048;24.638;2023-04-01T07:29:47;96351.47;;;13.80;76.80
10464;BME280;5279;42.048;24.638;2023-04-01T07:32:29;96352.19;;;13.89;77.15
10464;BME280;5279;42.048;24.638;2023-04-01T07:35:14;96354.19;;;14.21;74.01
10464;BME280;5279;42.048;24.638;2023-04-01T07:37:53;96338.56;;;14.11;76.21
10464;BME280;5279;42.048;24.638;2023-04-01T07:40:34;96333.31;;;14.24;76.09
10464;BME280;5279;42.048;24.638;2023-04-01T07:43:21;96334.16;;;14.32;76.83
10464;BME280;5279;42.048;24.638;2023-04-01T07:45:57;96355.97;;;14.48;75.74
10464;BME280;5279;42.048;24.638;2023-04-01T07:48:32;96349.09;;;14.67;74.34
10464;BME280;5279;42.048;24.638;2023-04-01T07:51:03;96356.00;;;14.55;74.82
10464;BME280;5279;42.048;24.638;2023-04-01T07:53:36;96364.31;;;14.86;73.66
10464;BME280;5279;42.048;24.638;2023-04-01T07:56:10;96350.81;;;15.07;71.29
10464;BME280;5279;42.048;24.638;2023-04-01T07:58:52;96356.16;;;15.07;70.03
10464;BME280;5279;42.048;24.638;2023-04-01T08:01:28;96355.38;;;15.40;67.63
10464;BME280;5279;42.048;24.638;2023-04-01T08:04:25;96344.50;;;15.74;66.60
10464;BME280;5279;42.048;24.638;2023-04-01T08:07:02;96349.66;;;15.56;66.02
10464;BME280;5279;42.048;24.638;2023-04-01T08:09:41;96340.59;;;15.63;65.38
10464;BME280;5279;42.048;24.638;2023-04-01T08:12:21;96336.50;;;15.61;65.82
10464;BME280;5279;42.048;24.638;2023-04-01T08:15:00;96323.38;;;15.59;64.15
10464;BME280;5279;42.048;24.638;2023-04-01T08:17:36;96316.16;;;15.60;64.64
10464;BME280;5279;42.048;24.638;2023-04-01T08:20:14;96298.91;;;15.43;67.52
10464;BME280;5279;42.048;24.638;2023-04-01T08:22:49;96310.19;;;15.31;66.31
10464;BME280;5279;42.048;24.638;2023-04-01T08:25:21;96302.38;;;15.23;66.62
10464;BME280;5279;42.048;24.638;2023-04-01T08:28:00;96296.44;;;15.35;66.36
10464;BME280;5279;42.048;24.638;2023-04-01T08:30:37;96315.13;;;15.48;65.54
10464;BME280;5279;42.048;24.638;2023-04-01T08:33:12;96310.59;;;15.42;65.76
10464;BME280;5279;42.048;24.638;2023-04-01T08:35:46;96307.72;;;15.63;65.32
10464;BME280;5279;42.048;24.638;2023-04-01T08:38:18;96296.84;;;15.77;64.26
10464;BME280;5279;42.048;24.638;2023-04-01T08:41:07;96291.25;;;15.92;64.25
10464;BME280;5279;42.048;24.638;2023-04-01T08:47:13;96279.44;;;16.19;64.10
10464;BME280;5279;42.048;24.638;2023-04-01T08:50:18;96274.56;;;16.48;62.41
10464;BME280;5279;42.048;24.638;2023-04-01T08:52:53;96264.97;;;16.78;60.86
10464;BME280;5279;42.048;24.638;2023-04-01T08:55:30;96258.88;;;16.64;60.13
10464;BME280;5279;42.048;24.638;2023-04-01T09:01:13;96241.84;;;16.90;58.75
10464;BME280;5279;42.048;24.638;2023-04-01T09:03:58;96246.66;;;16.75;59.23
10464;BME280;5279;42.048;24.638;2023-04-01T09:06:44;96243.56;;;16.78;59.50
10464;BME280;5279;42.048;24.638;2023-04-01T09:12:27;96235.56;;;16.33;61.43
10464;BME280;5279;42.048;24.638;2023-04-01T09:15:27;96220.88;;;16.11;62.23
10464;BME280;5279;42.048;24.638;2023-04-01T09:18:27;96217.59;;;16.09;62.29
10464;BME280;5279;42.048;24.638;2023-04-01T09:21:17;96226.66;;;16.08;62.90
10464;BME280;5279;42.048;24.638;2023-04-01T09:27:05;96214.75;;;16.04;64.09
10464;BME280;5279;42.048;24.638;2023-04-01T09:30:19;96206.91;;;15.58;66.61
10464;BME280;5279;42.048;24.638;2023-04-01T09:33:17;96195.59;;;15.63;66.43
10464;BME280;5279;42.048;24.638;2023-04-01T09:35:58;96186.94;;;15.74;65.89
10464;BME280;5279;42.048;24.638;2023-04-01T09:38:30;96185.84;;;15.88;65.41
10464;BME280;5279;42.048;24.638;2023-04-01T09:41:11;96201.97;;;16.13;65.15
10464;BME280;5279;42.048;24.638;2023-04-01T09:46:57;96180.81;;;16.42;63.29
10464;BME280;5279;42.048;24.638;2023-04-01T09:49:55;96179.44;;;16.33;62.81
10464;BME280;5279;42.048;24.638;2023-04-01T09:52:35;96179.13;;;16.55;62.19
10464;BME280;5279;42.048;24.638;2023-04-01T09:55:19;96168.34;;;16.68;61.55
10464;BME280;5279;42.048;24.638;2023-04-01T09:58:12;96173.22;;;16.77;60.88
10464;BME280;5279;42.048;24.638;2023-04-01T10:00:59;96172.34;;;17.08;59.57
10464;BME280;5279;42.048;24.638;2023-04-01T10:07:17;96163.06;;;17.29;58.68
10464;BME280;5279;42.048;24.638;2023-04-01T10:10:21;96158.00;;;17.21;57.52
10464;BME280;5279;42.048;24.638;2023-04-01T10:13:24;96147.84;;;17.47;57.34
10464;BME280;5279;42.048;24.638;2023-04-01T10:19:43;96132.94;;;17.52;57.28
10464;BME280;5279;42.048;24.638;2023-04-01T10:22:43;96127.56;;;19.24;52.52
10464;BME280;5279;42.048;24.638;2023-04-01T10:28:29;96113.66;;;19.38;49.84
10464;BME280;5279;42.048;24.638;2023-04-01T10:37:43;96080.91;;;20.49;47.97
10464;BME280;5279;42.048;24.638;2023-04-01T10:40:36;96066.69;;;21.86;43.54
10464;BME280;5279;42.048;24.638;2023-04-01T10:43:37;96059.00;;;23.68;41.91
10464;BME280;5279;42.048;24.638;2023-04-01T10:49:39;96045.72;;;26.43;33.79
10464;BME280;5279;42.048;24.638;2023-04-01T10:55:23;96024.94;;;29.90;28.45
10464;BME280;5279;42.048;24.638;2023-04-01T10:58:22;96004.59;;;30.31;27.56
10464;BME280;5279;42.048;24.638;2023-04-01T11:01:22;96013.25;;;30.92;26.44
10464;BME280;5279;42.048;24.638;2023-04-01T11:07:41;95996.66;;;33.35;23.65
10464;BME280;5279;42.048;24.638;2023-04-01T11:11:05;95990.22;;;34.27;22.59
10464;BME280;5279;42.048;24.638;2023-04-01T11:20:29;95981.22;;;33.05;23.07
10464;BME280;5279;42.048;24.638;2023-04-01T11:23:22;95963.00;;;34.34;22.37
10464;BME280;5279;42.048;24.638;2023-04-01T11:26:16;95969.13;;;33.14;23.13
10464;BME280;5279;42.048;24.638;2023-04-01T11:29:07;95951.69;;;31.73;24.38
10464;BME280;5279;42.048;24.638;2023-04-01T11:31:47;95964.69;;;32.24;24.39
10464;BME280;5279;42.048;24.638;2023-04-01T11:34:41;95952.41;;;32.73;24.26
10464;BME280;5279;42.048;24.638;2023-04-01T11:37:23;95951.41;;;33.79;22.97
10464;BME280;5279;42.048;24.638;2023-04-01T11:40:08;95966.50;;;34.64;22.78
10464;BME280;5279;42.048;24.638;2023-04-01T11:42:43;95963.66;;;35.62;20.48
10464;BME280;5279;42.048;24.638;2023-04-01T11:45:21;95960.28;;;36.05;20.88
10464;BME280;5279;42.048;24.638;2023-04-01T11:51:36;95957.75;;;33.71;22.55
10464;BME280;5279;42.048;24.638;2023-04-01T11:54:17;95970.91;;;31.99;24.33
10464;BME280;5279;42.048;24.638;2023-04-01T11:57:00;95975.97;;;29.66;26.59
10464;BME280;5279;42.048;24.638;2023-04-01T11:59:50;95966.59;;;28.53;28.16
10464;BME280;5279;42.048;24.638;2023-04-01T12:02:34;95959.91;;;27.89;29.42
10464;BME280;5279;42.048;24.638;2023-04-01T12:05:33;95945.97;;;28.79;28.25
10464;BME280;5279;42.048;24.638;2023-04-01T12:08:25;95952.06;;;28.25;28.96
10464;BME280;5279;42.048;24.638;2023-04-01T12:10:58;95942.06;;;28.53;28.87
10464;BME280;5279;42.048;24.638;2023-04-01T12:13:35;95935.69;;;29.99;27.26
10464;BME280;5279;42.048;24.638;2023-04-01T12:16:36;95920.81;;;30.71;26.25
10464;BME280;5279;42.048;24.638;2023-04-01T12:19:13;95913.28;;;32.93;23.62
10464;BME280;5279;42.048;24.638;2023-04-01T12:21:47;95903.53;;;32.49;24.11
10464;BME280;5279;42.048;24.638;2023-04-01T12:24:49;95907.28;;;34.25;22.34
10464;BME280;5279;42.048;24.638;2023-04-01T12:27:29;95895.91;;;34.06;22.27
10464;BME280;5279;42.048;24.638;2023-04-01T12:30:09;95879.41;;;36.13;21.32
10464;BME280;5279;42.048;24.638;2023-04-01T12:32:44;95882.97;;;33.86;22.43
10464;BME280;5279;42.048;24.638;2023-04-01T12:35:21;95875.97;;;33.38;23.02
10464;BME280;5279;42.048;24.638;2023-04-01T12:37:57;95869.78;;;33.21;24.14
10464;BME280;5279;42.048;24.638;2023-04-01T12:41:07;95864.56;;;34.40;21.94
10464;BME280;5279;42.048;24.638;2023-04-01T12:43:58;95871.97;;;32.98;22.90
10464;BME280;5279;42.048;24.638;2023-04-01T12:46:49;95865.00;;;32.28;24.21
10464;BME280;5279;42.048;24.638;2023-04-01T12:49:32;95856.75;;;33.38;23.33
10464;BME280;5279;42.048;24.638;2023-04-01T12:52:11;95858.88;;;31.71;24.28
10464;BME280;5279;42.048;24.638;2023-04-01T12:58:06;95846.47;;;31.00;25.01
10464;BME280;5279;42.048;24.638;2023-04-01T13:04:07;95853.56;;;31.83;24.17
10464;BME280;5279;42.048;24.638;2023-04-01T13:07:01;95839.44;;;33.46;22.31
10464;BME280;5279;42.048;24.638;2023-04-01T13:09:37;95838.28;;;33.77;22.81
10464;BME280;5279;42.048;24.638;2023-04-01T13:12:36;95848.63;;;33.21;22.87
10464;BME280;5279;42.048;24.638;2023-04-01T13:15:34;95837.16;;;32.09;23.42
10464;BME280;5279;42.048;24.638;2023-04-01T13:18:11;95838.56;;;30.37;25.62
10464;BME280;5279;42.048;24.638;2023-04-01T13:20:45;95836.06;;;28.38;27.83
10464;BME280;5279;42.048;24.638;2023-04-01T13:23:28;95836.31;;;26.39;30.56
10464;BME280;5279;42.048;24.638;2023-04-01T13:26:07;95861.81;;;24.58;33.13
10464;BME280;5279;42.048;24.638;2023-04-01T13:28:40;95873.88;;;23.09;36.27
10464;BME280;5279;42.048;24.638;2023-04-01T13:31:25;95945.50;;;21.47;39.24
10464;BME280;5279;42.048;24.638;2023-04-01T13:34:02;96027.38;;;19.23;44.21
10464;BME280;5279;42.048;24.638;2023-04-01T13:36:38;96056.38;;;18.10;48.36
10464;BME280;5279;42.048;24.638;2023-04-01T13:39:19;96052.66;;;18.11;49.66
10464;BME280;5279;42.048;24.638;2023-04-01T13:42:12;96076.38;;;17.96;50.53
10464;BME280;5279;42.048;24.638;2023-04-01T13:44:46;96093.84;;;17.32;55.55
10464;BME280;5279;42.048;24.638;2023-04-01T13:47:47;96119.28;;;16.56;58.56
10464;BME280;5279;42.048;24.638;2023-04-01T13:50:31;96112.59;;;15.71;70.95
10464;BME280;5279;42.048;24.638;2023-04-01T13:56:10;96140.91;;;14.42;100.00
10464;BME280;5279;42.048;24.638;2023-04-01T13:59:02;96170.50;;;13.93;100.00
10464;BME280;5279;42.048;24.638;2023-04-01T14:01:39;96192.47;;;13.54;100.00
10464;BME280;5279;42.048;24.638;2023-04-01T14:04:38;96187.06;;;13.41;100.00
10464;BME280;5279;42.048;24.638;2023-04-01T14:07:33;96188.25;;;13.32;100.00
10464;BME280;5279;42.048;24.638;2023-04-01T14:10:12;96201.28;;;13.21;100.00
10464;BME280;5279;42.048;24.638;2023-04-01T14:12:51;96188.75;;;13.14;100.00
10464;BME280;5279;42.048;24.638;2023-04-01T14:15:36;96184.69;;;13.19;100.00
10464;BME280;5279;42.048;24.638;2023-04-01T14:18:27;96164.03;;;13.21;100.00
10464;BME280;5279;42.048;24.638;2023-04-01T14:21:25;96166.13;;;13.32;100.00
10464;BME280;5279;42.048;24.638;2023-04-01T14:24:07;96166.03;;;13.53;100.00
10464;BME280;5279;42.048;24.638;2023-04-01T14:26:56;96164.28;;;13.66;100.00
10464;BME280;5279;42.048;24.638;2023-04-01T14:29:36;96151.94;;;13.59;100.00
10464;BME280;5279;42.048;24.638;2023-04-01T14:32:10;96136.81;;;13.66;100.00
10464;BME280;5279;42.048;24.638;2023-04-01T14:34:55;96113.31;;;13.76;100.00
10464;BME280;5279;42.048;24.638;2023-04-01T14:40:44;96095.09;;;13.86;100.00
10464;BME280;5279;42.048;24.638;2023-04-01T14:43:42;96080.03;;;14.33;100.00
10464;BME280;5279;42.048;24.638;2023-04-01T14:49:35;96076.13;;;14.55;100.00
10464;BME280;5279;42.048;24.638;2023-04-01T14:52:11;96075.91;;;14.63;100.00
10464;BME280;5279;42.048;24.638;2023-04-01T14:54:42;96082.44;;;14.93;100.00
10464;BME280;5279;42.048;24.638;2023-04-01T14:57:13;96061.38;;;15.29;100.00
10464;BME280;5279;42.048;24.638;2023-04-01T14:59:41;96071.00;;;15.44;100.00
10464;BME280;5279;42.048;24.638;2023-04-01T15:02:28;96070.19;;;15.37;100.00